x

Tanner Bank - 121nm West Of San Diego, Ca (46047) Wave Buoy

2:50am - Wed 22nd Feb 2017 All times are PST. -8 hours from GMT.

  • Sig Wave height 9.8ft
  • Swell Direction
  • Peak Period 11s
  • Average Period 9s
  • Wind
    16mph, 20mph gusts
  • Sea Temp 60°f
  • Air Temp 58°f
  • Sea Pressure 1022.2mb
  • Tanner Bank - 121nm West Of San Diego, Ca
  • Tanner Bank - 121nm West Of San Diego, Ca

More Historic Weather Station data

Upgrade to MSW Pro to gain access to the past 30 days of data for over 8000 Wavebouys and Weather Stations around the globe.

Join Pro

Comparision Forecast

View Surf forecast
   
Wed 02/22 2:50am 10ft 11s 9s 16 20 mph 1022.2mb 60f 58f
1:50am 10ft 13s 9s 13 18 mph 1022.7mb 60f 58f
12:50am 10ft 12s 9s 13 18 mph 1023.2mb 60f 59f
Tue 02/21 11:50pm 9ft 11s 9s 16 18 mph 1023.7mb 60f 59f
10:50pm 10ft 12s 9s 13 18 mph 1024.2mb 60f 58f
9:50pm 10ft 12s 10s 11 13 mph 1024.2mb 60f 58f
8:50pm 10ft 12s 10s 7 9 mph 1024.2mb 60f 58f
7:50pm 9.5ft 12s 10s 9 13 mph 1023.9mb 60f 58f
6:50pm 8.5ft 13s 9s 9 11 mph 1023.8mb 60f 58f
5:50pm 10ft 11s 10s 9 11 mph 1023.8mb 60f 59f
4:50pm 9ft 13s 10s 9 13 mph 1023.9mb 60f 60f
3:50pm 8.5ft 13s 10s 2 4 mph 1023.9mb 60f 61f
2:50pm 9ft 13s 10s 9 11 mph 1024.4mb 61f 61f
1:50pm 8.5ft 13s 10s 7 11 mph 1024.6mb 61f 61f
12:50pm 8ft 12s 10s 4 7 mph 1025.6mb 60f 61f
11:50am 9ft 13s 10s 4 7 mph 1026.4mb 60f 60f
10:50am 7ft 14s 9s 7 9 mph 1027.2mb 60f 60f
9:50am 8.5ft 14s 10s 7
mph
1026.7mb 59f 60f
8:50am 9ft 14s 10s 7 9 mph 1026.5mb 59f 59f
7:50am 9ft 15s 9s 7 9 mph 1026.1mb 59f 59f
6:50am 8ft 14s 9s 9 11 mph 1025.6mb 59f 59f
5:50am 8.5ft 13s 9s 7
mph
1025.3mb 59f 59f
4:50am 9ft 14s 9s 7 9 mph 1025mb 59f 59f
3:50am 9.5ft 14s 9s 7 9 mph 1025mb 59f 59f
2:50am 9ft 15s 10s 7 9 mph 1025.4mb 59f 59f
1:50am 10ft 16s 10s 7 9 mph 1026mb 59f 59f
12:50am 10ft 15s 10s 9 11 mph 1026mb 59f 59f
Mon 02/20 11:50pm 10.5ft 15s 11s 7 9 mph 1026.1mb 59f 60f
10:50pm 10ft 16s 10s 7 9 mph 1026mb 59f 60f
9:50pm 11ft 15s 11s 7 9 mph 1025.9mb 59f 60f
8:50pm 11ft 15s 11s 7 9 mph 1025.7mb 59f 60f
7:50pm 10ft 16s 11s 7 9 mph 1025.2mb 59f 60f
6:50pm 10ft 16s 10s 4 7 mph 1024.7mb 60f 60f
5:50pm 9ft 16s 10s 4
mph
1024.3mb 60f 60f
4:50pm 10ft 16s 10s 4
mph
1024.2mb 60f 60f
3:50pm 7.5ft 11s 9s 7
mph
1023.4mb 60f 60f
2:50pm 9ft 17s 10s 11 13 mph 1022.8mb 60f 60f
1:50pm 7.5ft 12s 9s 13 16 mph 1022.5mb 60f 60f
12:50pm 8ft 17s 9s 11 16 mph 1023.3mb 60f 60f
11:50am 7.5ft 17s 9s 11 13 mph 1023.7mb 60f 59f
10:50am 8ft 11s 9s 7 9 mph 1024.1mb 59f 59f
9:50am 7.5ft 12s 8s 7 9 mph 1024mb 59f 59f
8:50am 7ft 12s 8s 7 9 mph 1023.5mb 59f 59f
7:50am 7.5ft 13s 8s 7 9 mph 1022.7mb 59f 58f
6:50am 8ft 11s 8s 9 11 mph 1022mb 59f 59f
5:50am 8.5ft 12s 8s 9 11 mph 1021.5mb 59f 59f
4:50am 7.5ft 12s 8s 9 16 mph 1020.9mb 59f 58f
3:50am 7ft 11s 7s 11 13 mph 1020.5mb 59f 58f
2:50am 7.5ft 12s 8s 11 13 mph 1020.3mb 59f 58f
1:50am 8ft 12s 8s 11 16 mph 1020.6mb 59f 58f
12:50am 7.5ft 12s 8s 13 16 mph 1020.5mb 59f 58f
Sun 02/19 11:50pm 8ft 11s 8s 13 16 mph 1020.5mb 59f 57f
10:50pm 8ft 11s 9s 11 13 mph 1020.5mb 59f 57f
9:50pm 8ft 11s 9s 9 13 mph 1020.4mb 59f 58f
8:50pm 8ft 12s 9s 9 18 mph 1019.9mb 59f 58f
7:50pm 8.5ft 12s 9s 7 9 mph 1019.1mb 59f 58f
6:50pm 9ft 11s 9s 11 13 mph 1018.2mb 59f 58f
5:50pm 10ft 13s 9s 9 11 mph 1017.3mb 59f 58f
4:50pm 10ft 12s 8s 11 13 mph 1016.8mb 59f 58f
3:50pm 10ft 11s 8s 9 11 mph 1016.7mb 59f 58f
2:50pm 9ft 13s 8s 11 16 mph 1016.6mb 59f 58f
1:50pm 11ft 11s 8s 11 13 mph 1016.3mb 59f 58f
12:50pm 11ft 12s 8s 13 16 mph 1016.1mb 58f 57f
11:50am 11ft 11s 8s 16 20 mph 1016.3mb 58f 57f
10:50am 11.5ft 13s 8s 18 22 mph 1016.1mb 58f 57f
9:50am 12ft 13s 8s 18 22 mph 1015.6mb 58f 57f
8:50am 12ft 11s 8s 18 22 mph 1014.6mb 58f 56f
7:50am 15ft 13s 9s 20 22 mph 1013.5mb 58f 56f
6:50am 16ft 12s 9s 18 25 mph 1012.4mb 59f 56f
5:50am 14.5ft 13s 8s 20 27 mph 1011.8mb 59f 56f
4:50am 15.5ft 13s 9s 25 29 mph 1011.1mb 58f 56f
3:50am 15ft 14s 9s 25 31 mph 1010.4mb 58f 56f
2:50am 15.5ft 14s 9s 22 27 mph 1010.6mb 58f 56f
1:50am 16.5ft 13s 9s 22 29 mph 1009.8mb 58f 56f
12:50am 16.5ft 14s 9s 25 29 mph 1009.5mb 58f 56f
Sat 02/18 11:50pm 16.5ft 14s 9s 25 31 mph 1009.6mb 58f 56f
10:50pm 19ft 14s 9s 27 34 mph 1009.2mb 58f 56f
9:50pm 17ft 14s 9s 27 31 mph 1008.7mb 58f 56f
8:50pm 16.5ft 15s 9s 29 36 mph 1007.9mb 58f 56f